createdAt,value
2018-01-07T00:01:35.337Z,5.10
2018-01-07T00:04:03.569Z,5.20
2018-01-07T00:06:34.577Z,5.20
2018-01-07T00:09:02.821Z,5.20
2018-01-07T00:11:31.025Z,5.20
2018-01-07T00:14:00.013Z,5.10
2018-01-07T00:16:28.237Z,5.10
2018-01-07T00:18:56.444Z,5.10
2018-01-07T00:21:24.664Z,5.20
2018-01-07T00:23:52.870Z,5.10
2018-01-07T00:26:21.094Z,5.10
2018-01-07T00:28:50.077Z,5.00
2018-01-07T00:31:19.069Z,5.00
2018-01-07T00:33:47.277Z,5.00
2018-01-07T00:36:15.725Z,5.00
2018-01-07T00:38:43.934Z,5.00
2018-01-07T00:41:12.383Z,5.00
2018-01-07T00:43:41.361Z,4.80
2018-01-07T00:46:09.562Z,4.80
2018-01-07T00:48:38.549Z,4.90
2018-01-07T00:51:07.531Z,4.90
2018-01-07T00:53:36.527Z,4.90
2018-01-07T00:56:05.510Z,4.80
2018-01-07T00:58:33.734Z,4.70
2018-01-07T01:01:01.950Z,4.80
2018-01-07T01:03:30.389Z,4.70
2018-01-07T01:05:58.593Z,4.80
2018-01-07T01:08:26.808Z,4.80
2018-01-07T01:10:55.785Z,4.80
2018-01-07T01:13:24.182Z,4.70
2018-01-07T01:15:52.385Z,4.80
2018-01-07T01:18:20.617Z,4.70
2018-01-07T01:20:49.593Z,4.60
2018-01-07T01:23:17.801Z,4.50
2018-01-07T01:25:46.013Z,4.50
2018-01-07T01:28:15.034Z,4.50
2018-01-07T01:30:44.065Z,4.40
2018-01-07T01:33:12.273Z,4.40
2018-01-07T01:35:40.801Z,4.50
2018-01-07T01:38:08.989Z,4.50
2018-01-07T01:40:37.234Z,4.40
2018-01-07T01:43:05.474Z,4.40
2018-01-07T01:45:33.698Z,4.30
2018-01-07T01:48:02.682Z,4.30
2018-01-07T01:50:30.917Z,4.30
2018-01-07T01:52:59.885Z,4.30
2018-01-07T01:55:28.113Z,4.30
2018-01-07T01:57:56.325Z,4.30
2018-01-07T02:00:24.529Z,4.30
2018-01-07T02:02:52.730Z,4.30
2018-01-07T02:05:21.729Z,4.40
2018-01-07T02:07:49.958Z,4.30
2018-01-07T02:10:18.169Z,4.40
2018-01-07T02:12:46.390Z,4.50
2018-01-07T02:15:14.597Z,4.50
2018-01-07T02:17:42.829Z,4.50
2018-01-07T02:20:11.041Z,4.50
2018-01-07T02:22:39.285Z,4.50
2018-01-07T02:25:07.496Z,4.50
2018-01-07T02:27:36.510Z,4.50
2018-01-07T02:30:04.731Z,4.50
2018-01-07T02:32:32.937Z,4.50
2018-01-07T02:35:01.166Z,4.50
2018-01-07T02:37:29.377Z,4.50
2018-01-07T02:39:57.614Z,4.60
2018-01-07T02:42:25.821Z,4.60
2018-01-07T02:44:54.054Z,4.50
2018-01-07T02:47:23.026Z,4.50
2018-01-07T02:49:51.242Z,4.40
2018-01-07T02:52:19.469Z,4.40
2018-01-07T02:54:47.681Z,4.40
2018-01-07T02:57:15.897Z,4.40
2018-01-07T02:59:44.109Z,4.40
2018-01-07T03:02:12.322Z,4.40
2018-01-07T03:04:40.524Z,4.40
2018-01-07T03:07:08.780Z,4.50
2018-01-07T03:09:36.977Z,4.40
2018-01-07T03:12:05.400Z,4.40
2018-01-07T03:14:33.645Z,4.30
2018-01-07T03:17:02.662Z,4.40
2018-01-07T03:19:31.646Z,4.30
2018-01-07T03:22:00.622Z,4.30
2018-01-07T03:24:28.854Z,4.30
2018-01-07T03:26:57.289Z,4.30
2018-01-07T03:29:25.515Z,4.20
2018-01-07T03:31:53.717Z,4.20
2018-01-07T03:34:22.017Z,4.20
2018-01-07T03:36:51.213Z,4.10
2018-01-07T03:39:20.214Z,4.00
2018-01-07T03:41:49.181Z,4.00
2018-01-07T03:44:17.386Z,3.90
2018-01-07T03:46:45.622Z,4.00
2018-01-07T03:49:13.830Z,3.90
2018-01-07T03:51:42.057Z,3.90
2018-01-07T03:54:10.261Z,3.90
2018-01-07T03:56:39.261Z,3.80
2018-01-07T03:59:08.558Z,3.80
2018-01-07T04:01:37.546Z,3.80
2018-01-07T04:04:05.745Z,3.70
2018-01-07T04:06:33.968Z,3.80
2018-01-07T04:09:02.175Z,3.80
2018-01-07T04:11:30.397Z,3.70
2018-01-07T04:13:58.597Z,3.70
2018-01-07T04:16:28.313Z,3.60
2018-01-07T04:18:56.538Z,3.60
2018-01-07T04:21:24.745Z,3.60
2018-01-07T04:23:52.990Z,3.60
2018-01-07T04:26:21.198Z,3.60
2018-01-07T04:28:49.526Z,3.50
2018-01-07T04:31:17.798Z,3.50
2018-01-07T04:33:46.177Z,3.50
2018-01-07T04:36:14.638Z,3.50
2018-01-07T04:38:42.845Z,3.40
2018-01-07T04:41:11.061Z,3.30
2018-01-07T04:43:39.260Z,3.20
2018-01-07T04:46:08.258Z,3.20
2018-01-07T04:48:37.221Z,3.20
2018-01-07T04:51:05.438Z,3.10
2018-01-07T04:53:33.659Z,3.20
2018-01-07T04:56:01.869Z,3.20
2018-01-07T04:58:30.854Z,3.20
2018-01-07T05:00:59.085Z,3.20
2018-01-07T05:03:27.297Z,3.20
2018-01-07T05:05:55.521Z,3.20
2018-01-07T05:08:23.749Z,3.20
2018-01-07T05:10:51.958Z,3.10
2018-01-07T05:13:20.226Z,3.10
2018-01-07T05:15:48.440Z,3.00
2018-01-07T05:18:16.669Z,3.00
2018-01-07T05:20:45.955Z,3.00
2018-01-07T05:23:14.936Z,2.90
2018-01-07T05:25:43.941Z,2.80
2018-01-07T05:28:12.909Z,2.80
2018-01-07T05:30:41.138Z,2.80
2018-01-07T05:33:09.408Z,2.80
2018-01-07T05:35:37.561Z,2.70
2018-01-07T05:38:06.546Z,2.60
2018-01-07T05:40:34.749Z,2.60
2018-01-07T05:43:02.973Z,2.70
2018-01-07T05:45:31.153Z,2.70
2018-01-07T05:47:59.381Z,2.70
2018-01-07T05:50:27.575Z,2.60
2018-01-07T05:52:56.095Z,2.60
2018-01-07T05:55:25.073Z,2.60
2018-01-07T05:57:54.097Z,2.60
2018-01-07T06:00:23.062Z,2.50
2018-01-07T06:02:52.053Z,2.50
2018-01-07T06:05:21.045Z,2.60
2018-01-07T06:07:50.037Z,2.70
2018-01-07T06:10:18.241Z,2.60
2018-01-07T06:12:46.477Z,2.60
2018-01-07T06:15:14.685Z,2.60
2018-01-07T06:17:43.657Z,2.60
2018-01-07T06:20:11.890Z,2.50
2018-01-07T06:22:40.099Z,2.50
2018-01-07T06:25:08.316Z,2.40
2018-01-07T06:27:36.526Z,2.40
2018-01-07T06:30:04.754Z,2.30
2018-01-07T06:32:32.984Z,2.30
2018-01-07T06:35:01.301Z,2.30
2018-01-07T06:37:29.566Z,2.30
2018-01-07T06:39:57.857Z,2.30
2018-01-07T06:42:26.072Z,2.30
2018-01-07T06:44:54.407Z,2.30
2018-01-07T06:47:22.677Z,2.30
2018-01-07T06:49:50.890Z,2.20
2018-01-07T06:52:19.114Z,2.20
2018-01-07T06:54:48.094Z,2.20
2018-01-07T06:57:17.089Z,2.10
2018-01-07T06:59:46.298Z,2.10
2018-01-07T07:02:14.477Z,2.10
2018-01-07T07:04:43.459Z,2.10
2018-01-07T07:07:11.669Z,2.10
2018-01-07T07:09:39.877Z,2.10
2018-01-07T07:12:08.105Z,2.20
2018-01-07T07:14:36.361Z,2.20
2018-01-07T07:17:04.576Z,2.20
2018-01-07T07:19:32.800Z,2.30
2018-01-07T07:22:01.009Z,2.20
2018-01-07T07:24:29.246Z,2.30
2018-01-07T07:26:57.554Z,2.30
2018-01-07T07:29:25.776Z,2.30
2018-01-07T07:31:53.991Z,2.30
2018-01-07T07:34:22.225Z,2.40
2018-01-07T07:36:51.043Z,2.40
2018-01-07T07:39:19.335Z,2.40
2018-01-07T07:41:47.615Z,2.40
2018-01-07T07:44:16.369Z,2.40
2018-01-07T07:46:44.583Z,2.40
2018-01-07T07:49:12.861Z,2.40
2018-01-07T07:51:41.414Z,2.40
2018-01-07T07:54:10.398Z,2.30
2018-01-07T07:56:39.407Z,2.30
2018-01-07T07:59:07.985Z,2.20
2018-01-07T08:01:36.468Z,2.20
2018-01-07T08:04:05.442Z,2.20
2018-01-07T08:06:33.667Z,2.20
2018-01-07T08:09:01.884Z,2.30
2018-01-07T08:11:30.201Z,2.30
2018-01-07T08:13:58.403Z,2.20
2018-01-07T08:16:26.731Z,2.20
2018-01-07T08:18:55.725Z,2.30
2018-01-07T08:21:24.718Z,2.30
2018-01-07T08:23:53.705Z,2.30
2018-01-07T08:26:22.698Z,2.30
2018-01-07T08:28:51.710Z,2.30
2018-01-07T08:31:20.681Z,2.30
2018-01-07T08:33:49.697Z,2.30
2018-01-07T08:36:17.901Z,2.30
2018-01-07T08:38:46.222Z,2.30
2018-01-07T08:41:14.450Z,2.30
2018-01-07T08:43:42.666Z,2.40
2018-01-07T08:46:10.974Z,2.50
2018-01-07T08:48:39.186Z,2.50
2018-01-07T08:51:07.414Z,2.50
2018-01-07T08:53:35.625Z,2.50
2018-01-07T08:56:04.055Z,2.50
2018-01-07T08:58:33.059Z,2.50
2018-01-07T09:01:02.108Z,2.50
2018-01-07T09:03:31.126Z,2.50
2018-01-07T09:06:00.142Z,2.60
2018-01-07T09:08:29.113Z,2.50
2018-01-07T09:10:58.112Z,2.50
2018-01-07T09:13:27.093Z,2.50
2018-01-07T09:15:55.338Z,2.50
2018-01-07T09:18:23.614Z,2.50
2018-01-07T09:20:51.827Z,2.50
2018-01-07T09:23:20.816Z,2.60
2018-01-07T09:25:49.810Z,2.60
2018-01-07T09:28:18.294Z,2.50
2018-01-07T09:30:47.282Z,2.70
2018-01-07T09:33:16.273Z,2.70
2018-01-07T09:35:44.473Z,2.70
2018-01-07T09:38:12.714Z,2.70
2018-01-07T09:40:40.910Z,2.70
2018-01-07T09:43:09.892Z,2.70
2018-01-07T09:45:38.106Z,2.70
2018-01-07T09:48:06.314Z,2.70
2018-01-07T09:50:34.526Z,2.70
2018-01-07T09:53:02.777Z,2.70
2018-01-07T09:55:30.981Z,2.80
2018-01-07T09:57:59.198Z,2.80
2018-01-07T10:00:27.417Z,2.80
2018-01-07T10:02:55.633Z,2.70
2018-01-07T10:05:23.855Z,2.70
2018-01-07T10:07:52.061Z,2.70
2018-01-07T10:10:20.281Z,2.60
2018-01-07T10:12:48.504Z,2.70
2018-01-07T10:15:16.733Z,2.70
2018-01-07T10:17:44.941Z,2.70
2018-01-07T10:20:13.270Z,2.80
2018-01-07T10:22:41.893Z,2.80
2018-01-07T10:25:10.865Z,2.90
2018-01-07T10:27:39.093Z,2.90
2018-01-07T10:30:07.310Z,3.00
2018-01-07T10:32:35.549Z,3.10
2018-01-07T10:35:03.749Z,3.10
2018-01-07T10:37:31.997Z,3.00
2018-01-07T10:40:00.198Z,3.10
2018-01-07T10:42:29.222Z,3.20
2018-01-07T10:44:58.206Z,3.20
2018-01-07T10:47:26.434Z,3.20
2018-01-07T10:49:54.657Z,3.30
2018-01-07T10:52:22.871Z,3.30
2018-01-07T10:54:51.097Z,3.40
2018-01-07T10:57:19.312Z,3.40
2018-01-07T10:59:47.537Z,3.50
2018-01-07T11:02:21.778Z,3.50
2018-01-07T11:04:50.770Z,3.50
2018-01-07T11:07:18.992Z,3.50
2018-01-07T11:09:47.216Z,3.60
2018-01-07T11:12:15.431Z,3.60
2018-01-07T11:14:43.731Z,3.60
2018-01-07T11:17:11.942Z,3.60
2018-01-07T11:19:40.157Z,3.60
2018-01-07T11:22:08.391Z,3.60
2018-01-07T11:24:37.742Z,3.70
2018-01-07T11:27:05.998Z,3.70
2018-01-07T11:29:34.202Z,3.80
2018-01-07T11:32:02.465Z,3.90
2018-01-07T11:34:30.685Z,4.00
2018-01-07T11:36:59.677Z,4.10
2018-01-07T11:39:27.885Z,4.00
2018-01-07T11:41:56.354Z,4.10
2018-01-07T11:44:25.345Z,4.20
2018-01-07T11:46:53.562Z,4.20
2018-01-07T11:49:21.817Z,4.30
2018-01-07T11:51:50.041Z,4.40
2018-01-07T11:54:18.249Z,4.50
2018-01-07T11:56:46.454Z,4.60
2018-01-07T11:59:15.490Z,4.60
2018-01-07T12:01:44.595Z,4.50
2018-01-07T12:04:12.797Z,4.40
2018-01-07T12:06:41.014Z,4.40
2018-01-07T12:09:09.518Z,4.30
2018-01-07T12:11:38.818Z,4.20
2018-01-07T12:14:07.800Z,4.20
2018-01-07T12:16:36.031Z,4.10
2018-01-07T12:19:04.255Z,4.10
2018-01-07T12:21:32.550Z,4.00
2018-01-07T12:24:01.534Z,3.60
2018-01-07T12:26:30.534Z,3.40
2018-01-07T12:28:59.534Z,3.40
2018-01-07T12:31:27.822Z,3.30
2018-01-07T12:33:56.094Z,3.30
2018-01-07T12:36:24.366Z,3.30
2018-01-07T12:38:52.646Z,3.30
2018-01-07T12:41:20.873Z,3.30
2018-01-07T12:43:49.112Z,3.40
2018-01-07T12:46:17.329Z,3.40
2018-01-07T12:48:45.555Z,3.50
2018-01-07T12:51:13.770Z,3.50
2018-01-07T12:53:41.989Z,3.50
2018-01-07T12:56:10.208Z,3.50
2018-01-07T12:58:38.455Z,3.50
2018-01-07T13:01:06.681Z,3.40
2018-01-07T13:03:34.895Z,3.40
2018-01-07T13:06:03.134Z,3.30
2018-01-07T13:08:32.122Z,3.10
2018-01-07T13:11:00.333Z,3.10
2018-01-07T13:13:28.537Z,3.10
2018-01-07T13:15:57.522Z,2.90
2018-01-07T13:18:25.754Z,2.90
2018-01-07T13:20:54.745Z,2.80
2018-01-07T13:23:23.713Z,2.80
2018-01-07T13:25:51.938Z,2.70
2018-01-07T13:28:20.169Z,2.70
2018-01-07T13:30:48.370Z,2.70
2018-01-07T13:33:17.656Z,2.60
2018-01-07T13:35:46.626Z,2.60
2018-01-07T13:38:15.633Z,2.60
2018-01-07T13:40:44.605Z,2.60
2018-01-07T13:43:12.834Z,2.60
2018-01-07T13:45:41.049Z,2.60
2018-01-07T13:48:09.274Z,2.60
2018-01-07T13:50:37.518Z,2.60
2018-01-07T13:53:06.535Z,2.70
2018-01-07T13:55:34.806Z,2.60
2018-01-07T13:58:03.026Z,2.70
2018-01-07T14:00:31.257Z,2.70
2018-01-07T14:02:59.480Z,2.70
2018-01-07T14:05:27.709Z,2.70
2018-01-07T14:07:55.925Z,2.70
2018-01-07T14:10:24.167Z,2.70
2018-01-07T14:12:52.377Z,2.70
2018-01-07T14:15:20.586Z,2.70
2018-01-07T14:17:49.602Z,2.70
2018-01-07T14:20:17.818Z,2.60
2018-01-07T14:22:46.041Z,2.60
2018-01-07T14:25:15.019Z,2.50
2018-01-07T14:27:43.229Z,2.50
2018-01-07T14:30:11.442Z,2.50
2018-01-07T14:32:40.449Z,2.40
2018-01-07T14:35:08.694Z,2.30
2018-01-07T14:37:37.734Z,3.60
2018-01-07T14:40:06.814Z,2.30
2018-01-07T14:42:35.856Z,2.30
2018-01-07T14:45:04.286Z,2.30
2018-01-07T14:47:33.494Z,2.20
2018-01-07T14:50:01.741Z,2.20
2018-01-07T14:52:29.955Z,2.20
2018-01-07T14:54:58.942Z,2.10
2018-01-07T14:59:56.636Z,2.00
2018-01-07T15:02:24.862Z,2.00
2018-01-07T15:04:53.073Z,2.00
2018-01-07T15:07:22.080Z,2.00
2018-01-07T15:09:50.389Z,1.90
2018-01-07T15:12:18.693Z,1.90
2018-01-07T15:14:47.686Z,1.80
2018-01-07T15:17:16.078Z,1.80
2018-01-07T15:19:44.246Z,1.80
2018-01-07T15:22:13.228Z,1.80
2018-01-07T15:24:41.451Z,1.70
2018-01-07T15:27:09.673Z,1.70
2018-01-07T15:29:38.101Z,1.70
2018-01-07T15:32:06.589Z,1.60
2018-01-07T15:34:34.858Z,1.60
2018-01-07T15:37:03.115Z,1.60
2018-01-07T15:39:31.354Z,1.50
2018-01-07T15:41:59.565Z,1.50
2018-01-07T15:44:27.797Z,1.50
2018-01-07T15:46:56.010Z,1.40
2018-01-07T15:49:25.020Z,1.40
2018-01-07T15:51:53.269Z,1.30
2018-01-07T15:54:21.553Z,1.40
2018-01-07T15:56:49.841Z,1.30
2018-01-07T15:59:18.057Z,1.30
2018-01-07T16:01:46.362Z,1.30
2018-01-07T16:04:14.640Z,1.30
2018-01-07T16:06:43.652Z,1.30
2018-01-07T16:09:11.876Z,1.20
2018-01-07T16:11:40.135Z,1.20
2018-01-07T16:14:08.368Z,1.20
2018-01-07T16:16:37.342Z,1.20
2018-01-07T16:19:06.372Z,1.20
2018-01-07T16:21:34.587Z,1.10
2018-01-07T16:24:02.802Z,1.10
2018-01-07T16:26:31.054Z,1.10
2018-01-07T16:28:59.270Z,1.20
2018-01-07T16:31:27.501Z,1.10
2018-01-07T16:33:55.722Z,1.10
2018-01-07T16:36:23.938Z,1.10
2018-01-07T16:38:52.492Z,1.10
2018-01-07T16:41:21.425Z,1.10
2018-01-07T16:43:49.666Z,1.00
2018-01-07T16:46:17.882Z,1.10
2018-01-07T16:48:46.128Z,1.10
2018-01-07T16:51:14.750Z,1.00
2018-01-07T16:53:43.742Z,1.00
2018-01-07T16:56:12.784Z,1.00
2018-01-07T16:58:40.996Z,1.00
2018-01-07T17:01:09.252Z,1.00
2018-01-07T17:03:37.459Z,1.00
2018-01-07T17:06:06.550Z,0.90
2018-01-07T17:08:34.869Z,0.90
2018-01-07T17:11:03.346Z,0.90
2018-01-07T17:13:31.583Z,0.90
2018-01-07T17:15:59.904Z,0.80
2018-01-07T17:18:28.244Z,0.80
2018-01-07T17:20:57.308Z,0.80
2018-01-07T17:23:26.442Z,0.80
2018-01-07T17:25:54.751Z,0.70
2018-01-07T17:28:22.997Z,0.70
2018-01-07T17:30:51.997Z,0.70
2018-01-07T17:33:20.281Z,0.70
2018-01-07T17:35:48.542Z,0.70
2018-01-07T17:38:16.755Z,0.70
2018-01-07T17:40:44.985Z,0.70
2018-01-07T17:43:13.256Z,0.60
2018-01-07T17:45:42.257Z,0.60
2018-01-07T17:48:10.544Z,0.60
2018-01-07T17:50:38.787Z,0.60
2018-01-07T17:53:07.002Z,0.60
2018-01-07T17:55:35.261Z,0.60
2018-01-07T17:58:04.247Z,0.60
2018-01-07T18:00:33.276Z,0.50
2018-01-07T18:03:01.496Z,0.50
2018-01-07T18:05:29.727Z,0.60
2018-01-07T18:07:57.936Z,0.50
2018-01-07T18:10:26.162Z,0.50
2018-01-07T18:12:54.365Z,0.50
2018-01-07T18:15:22.601Z,0.50
2018-01-07T18:17:50.798Z,0.50
2018-01-07T18:20:19.011Z,0.50
2018-01-07T18:22:47.226Z,0.50
2018-01-07T18:25:15.434Z,0.50
2018-01-07T18:27:43.709Z,0.50
2018-01-07T18:30:11.939Z,0.50
2018-01-07T18:32:40.141Z,0.50
2018-01-07T18:35:08.351Z,0.50
2018-01-07T18:37:36.880Z,0.50
2018-01-07T18:40:05.154Z,0.40
2018-01-07T18:42:33.398Z,0.40
2018-01-07T18:45:01.674Z,0.40
2018-01-07T18:47:30.692Z,0.40
2018-01-07T18:49:59.007Z,0.40
2018-01-07T18:52:28.131Z,0.40
2018-01-07T18:54:57.147Z,0.40
2018-01-07T18:57:25.536Z,0.30
2018-01-07T18:59:54.794Z,0.30
2018-01-07T19:02:23.044Z,0.40
2018-01-07T19:04:51.356Z,0.30
2018-01-07T19:07:20.382Z,0.30
2018-01-07T19:09:48.682Z,0.30
2018-01-07T19:12:16.966Z,0.30
2018-01-07T19:14:45.182Z,0.20
2018-01-07T19:17:14.216Z,0.30
2018-01-07T19:19:42.486Z,0.20
2018-01-07T19:22:10.800Z,0.20
2018-01-07T19:24:39.848Z,0.20
2018-01-07T19:27:08.172Z,0.20
2018-01-07T19:29:36.679Z,0.20
2018-01-07T19:32:05.683Z,0.10
2018-01-07T19:34:33.940Z,0.10
2018-01-07T19:37:02.971Z,0.20
2018-01-07T19:39:31.219Z,0.10
2018-01-07T19:41:59.494Z,0.10
2018-01-07T19:44:27.842Z,0.10
2018-01-07T19:46:56.097Z,0.10
2018-01-07T19:49:24.525Z,0.10
2018-01-07T19:51:53.559Z,0.10
2018-01-07T19:54:21.851Z,0.00
2018-01-07T19:56:50.093Z,0.10
2018-01-07T19:59:18.351Z,0.10
2018-01-07T20:01:46.626Z,0.10
2018-01-07T20:04:15.611Z,0.10
2018-01-07T20:06:44.666Z,0.10
2018-01-07T20:09:12.950Z,0.00
2018-01-07T20:11:41.197Z,0.10
2018-01-07T20:14:10.349Z,0.20
2018-01-07T20:16:39.338Z,0.10
2018-01-07T20:19:07.622Z,0.10
2018-01-07T20:21:36.646Z,0.10
2018-01-07T20:27:02.333Z,0.20
2018-01-07T20:29:30.583Z,0.20
2018-01-07T20:31:59.670Z,0.20
2018-01-07T20:34:27.878Z,0.10
2018-01-07T20:36:56.861Z,0.10
2018-01-07T20:42:24.360Z,0.00
2018-01-07T20:44:54.063Z,0.00
2018-01-07T20:47:22.266Z,0.00
2018-01-07T20:49:50.481Z,0.00
2018-01-07T20:52:18.990Z,0.00
2018-01-07T20:54:47.973Z,0.00
2018-01-07T21:00:13.923Z,0.00
2018-01-07T21:02:42.918Z,0.00
2018-01-07T21:05:12.114Z,0.00
2018-01-07T21:07:41.090Z,0.10
2018-01-07T21:26:13.714Z,-0.10
2018-01-07T21:28:42.112Z,-0.10
2018-01-07T21:31:10.386Z,-0.10
2018-01-07T21:33:38.641Z,-0.10
2018-01-07T21:36:06.937Z,-0.10
2018-01-07T21:38:35.270Z,-0.10
2018-01-07T21:41:03.711Z,0.00
2018-01-07T21:43:32.045Z,-0.10
2018-01-07T21:46:00.346Z,-0.10
2018-01-07T21:48:28.581Z,-0.10
2018-01-07T21:50:57.580Z,-0.10
2018-01-07T21:53:25.900Z,-0.20
2018-01-07T21:55:54.121Z,-0.20
2018-01-07T21:58:22.421Z,-0.20
2018-01-07T22:01:03.342Z,-0.20
2018-01-07T22:03:43.593Z,-0.30
2018-01-07T22:06:24.569Z,-0.30
2018-01-07T22:08:52.814Z,-0.30
2018-01-07T22:14:17.990Z,-0.30
2018-01-07T22:16:46.989Z,-0.40
2018-01-07T22:19:16.822Z,-0.50
2018-01-07T22:21:45.056Z,-0.50
2018-01-07T22:24:13.274Z,-0.40
2018-01-07T22:26:41.501Z,-0.50
2018-01-07T22:29:09.722Z,-0.50
2018-01-07T22:31:37.949Z,-0.50
2018-01-07T22:37:04.537Z,-0.60
2018-01-07T22:39:34.127Z,-0.60
2018-01-07T22:42:02.794Z,-0.70
2018-01-07T22:44:31.046Z,-0.60
2018-01-07T22:46:59.269Z,-0.60
2018-01-07T22:49:28.250Z,-0.60
2018-01-07T22:51:56.478Z,-0.70
2018-01-07T22:54:24.697Z,-0.60
2018-01-07T22:56:53.701Z,-0.70
2018-01-07T22:59:21.909Z,-0.70
2018-01-07T23:01:50.457Z,-0.70
2018-01-07T23:04:19.437Z,-0.70
2018-01-07T23:06:47.678Z,-0.80
2018-01-07T23:09:15.910Z,-0.70
2018-01-07T23:11:44.907Z,-0.80
2018-01-07T23:14:13.885Z,-0.80
2018-01-07T23:16:42.865Z,-0.80
2018-01-07T23:19:11.882Z,-0.90
2018-01-07T23:22:03.878Z,-0.90
2018-01-07T23:24:32.101Z,-0.80
2018-01-07T23:29:58.214Z,-0.90
2018-01-07T23:32:26.425Z,-0.90
2018-01-07T23:34:54.653Z,-1.00
2018-01-07T23:37:22.877Z,-1.00
2018-01-07T23:39:51.102Z,-1.00
2018-01-07T23:42:20.314Z,-1.00
2018-01-07T23:44:48.509Z,-1.00
2018-01-07T23:47:17.568Z,-1.00
2018-01-07T23:49:45.809Z,-1.00
2018-01-07T23:52:14.838Z,-1.00
2018-01-07T23:54:43.846Z,-0.90
2018-01-07T23:57:12.849Z,-0.90
2018-01-07T23:59:41.057Z,-1.00
